Time;durP1;ratioP1;P1;durP2;ratioP2;P2;SDS_P1;SDS_P2;PMS_P1;PMS_P2;Temp;Humidity;BMP_temperature;BMP_pressure;BME280_temperature;BME280_humidity;BME280_pressure;Samples;Min_cycle;Max_cycle;Signal;HPM_P1;HPM_P2
2022/05/19 17:00:45;;;;;;;15.43;4.10;;;;;;;24.02;45.45;101060.57;2487869;70;21692;-75
2022/05/19 17:03:50;;;;;;;13.35;4.40;;;;;;;24.07;45.54;101053.16;2492434;70;22265;-75
2022/05/19 17:06:52;;;;;;;11.03;3.90;;;;;;;24.14;45.58;101049.94;2481055;69;23535;-73
2022/05/19 17:09:58;;;;;;;18.20;4.70;;;;;;;24.21;45.46;101048.05;2454944;70;52285;-76
2022/05/19 17:13:03;;;;;;;19.40;4.42;;;;;;;24.26;45.50;101039.31;2530941;70;21830;-77
2022/05/19 17:16:07;;;;;;;14.00;4.10;;;;;;;24.30;45.35;101042.74;2530505;70;51191;-76
2022/05/19 17:19:11;;;;;;;18.50;4.90;;;;;;;24.34;45.21;101035.02;2499089;70;49423;-76
2022/05/19 17:22:16;;;;;;;11.57;4.20;;;;;;;24.38;45.12;101024.60;2529542;70;22049;-76
2022/05/19 17:25:19;;;;;;;14.68;4.30;;;;;;;24.39;44.99;101028.45;2473885;68;51238;-73
2022/05/19 17:28:21;;;;;;;13.95;4.50;;;;;;;24.44;44.90;101025.95;2480326;70;51491;-73
2022/05/19 17:31:23;;;;;;;11.73;4.42;;;;;;;24.46;44.77;101032.02;2521682;69;50256;-73
2022/05/19 17:34:25;;;;;;;15.08;4.62;;;;;;;24.46;44.76;101029.31;2454997;70;51419;-73
2022/05/19 17:37:28;;;;;;;13.53;4.45;;;;;;;24.51;44.70;101032.73;2445767;71;51336;-73
2022/05/19 17:40:30;;;;;;;15.85;4.47;;;;;;;24.53;44.66;101025.20;2482907;71;50629;-73
2022/05/19 17:43:32;;;;;;;18.55;4.20;;;;;;;24.51;44.59;101025.44;2457904;70;49490;-74
2022/05/19 17:46:37;;;;;;;10.93;4.55;;;;;;;24.54;44.57;101022.83;2416547;70;50180;-74
2022/05/19 17:49:38;;;;;;;14.70;4.40;;;;;;;24.57;44.49;101018.87;2482558;70;22337;-75
2022/05/19 17:52:41;;;;;;;16.12;4.87;;;;;;;24.55;44.47;101017.72;2475070;70;51427;-74
2022/05/19 17:55:47;;;;;;;9.83;4.10;;;;;;;24.54;44.47;101006.07;2477789;70;51592;-74
2022/05/19 17:58:52;;;;;;;12.03;4.37;;;;;;;24.54;44.43;101012.84;2494845;69;51660;-74
2022/05/19 18:01:54;;;;;;;11.55;4.08;;;;;;;24.57;44.40;101021.57;2533239;69;22283;-74
2022/05/19 18:04:56;;;;;;;10.72;4.35;;;;;;;24.60;44.41;101041.43;2442165;70;51477;-74
2022/05/19 18:07:58;;;;;;;10.20;4.05;;;;;;;24.56;44.37;101031.57;2472890;70;51165;-74
2022/05/19 18:11:01;;;;;;;10.78;4.22;;;;;;;24.54;44.44;101034.48;2473354;71;50117;-74
2022/05/19 18:14:03;;;;;;;18.50;4.97;;;;;;;24.57;44.37;101035.10;2472745;71;50561;-74
2022/05/19 18:20:26;;;;;;;24.67;5.25;;;;;;;24.54;44.50;101037.18;2486038;69;22271;-72
2022/05/19 18:23:30;;;;;;;17.80;5.03;;;;;;;24.54;44.64;101034.48;2476488;69;51772;-74
2022/05/19 18:26:32;;;;;;;19.77;5.05;;;;;;;24.56;44.69;101034.27;2465731;70;52496;-74
2022/05/19 18:29:34;;;;;;;23.27;5.67;;;;;;;24.60;44.81;101027.37;2502311;69;51240;-74
2022/05/19 18:32:36;;;;;;;24.12;5.17;;;;;;;24.61;44.80;101033.61;2503932;68;51373;-74
2022/05/19 18:35:41;;;;;;;16.67;4.80;;;;;;;24.59;45.04;101030.31;2509372;69;51272;-74
2022/05/19 18:38:44;;;;;;;18.15;4.95;;;;;;;24.59;45.23;101035.72;2470401;69;51372;-73
2022/05/19 18:45:07;;;;;;;12.35;4.53;;;;;;;24.58;45.46;101036.75;2502758;69;22528;-73
2022/05/19 18:48:10;;;;;;;15.18;4.87;;;;;;;24.58;45.54;101047.05;2431210;70;49547;-74
2022/05/19 18:51:12;;;;;;;14.65;5.30;;;;;;;24.61;45.53;101043.08;2462073;71;50295;-75
2022/05/19 18:54:14;;;;;;;20.48;4.78;;;;;;;24.59;45.70;101037.08;2517173;70;51393;-73
2022/05/19 18:57:17;;;;;;;18.37;5.92;;;;;;;24.56;45.75;101030.22;2463115;69;51688;-73
2022/05/19 19:00:19;;;;;;;21.30;5.40;;;;;;;24.58;45.75;101024.05;2497632;70;51476;-72
2022/05/19 19:03:21;;;;;;;18.35;4.90;;;;;;;24.60;45.80;101023.84;2499614;69;51394;-71
2022/05/19 19:06:26;;;;;;;14.10;5.72;;;;;;;24.58;45.91;101028.10;2468677;69;51387;-71
2022/05/19 19:09:28;;;;;;;12.80;5.25;;;;;;;24.59;45.94;101024.91;2502933;69;50561;-71
2022/05/19 19:12:30;;;;;;;20.45;5.37;;;;;;;24.58;45.94;101024.05;2476835;69;51231;-73
2022/05/19 19:15:33;;;;;;;19.50;6.25;;;;;;;24.61;45.93;101025.49;2483476;69;50519;-73
2022/05/19 19:18:36;;;;;;;12.10;5.22;;;;;;;24.60;45.96;101027.37;2509654;69;50571;-73
2022/05/19 19:21:39;;;;;;;15.88;5.22;;;;;;;24.61;45.96;101033.61;2481280;70;51367;-74
2022/05/19 19:24:41;;;;;;;18.35;5.97;;;;;;;24.60;46.01;101042.26;2515086;69;51454;-73
2022/05/19 19:27:43;;;;;;;15.00;5.00;;;;;;;24.60;46.02;101043.61;2491550;69;51439;-73
2022/05/19 19:30:45;;;;;;;16.85;5.47;;;;;;;24.60;46.12;101036.02;2463176;69;50279;-73
2022/05/19 19:33:48;;;;;;;19.50;5.75;;;;;;;24.61;46.11;101040.37;2517407;69;50612;-75
2022/05/19 19:36:50;;;;;;;16.00;5.30;;;;;;;24.60;46.10;101036.02;2485207;70;51226;-74
2022/05/19 19:39:52;;;;;;;17.67;5.95;;;;;;;24.58;46.08;101032.16;2492519;70;50251;-74
2022/05/19 19:42:54;;;;;;;19.60;5.75;;;;;;;24.58;46.04;101028.63;2520339;70;50623;-74
2022/05/19 19:45:57;;;;;;;20.92;5.80;;;;;;;24.58;46.00;101021.87;2484060;70;50167;-74
2022/05/19 19:48:59;;;;;;;15.43;5.87;;;;;;;24.58;45.89;101021.34;2514855;70;51396;-76
